sensor_id;sensor_type;location;lat;lon;timestamp;temperature;humidity
41058;DHT22;66768;48.884;2.258;2023-03-16T00:01:24;11.40;91.10
41058;DHT22;66768;48.884;2.258;2023-03-16T00:03:51;11.40;91.20
41058;DHT22;66768;48.884;2.258;2023-03-16T00:06:18;11.40;91.00
41058;DHT22;66768;48.884;2.258;2023-03-16T00:08:44;11.40;91.30
41058;DHT22;66768;48.884;2.258;2023-03-16T00:11:11;11.40;91.40
41058;DHT22;66768;48.884;2.258;2023-03-16T00:13:38;11.40;91.20
41058;DHT22;66768;48.884;2.258;2023-03-16T00:16:08;11.40;91.30
41058;DHT22;66768;48.884;2.258;2023-03-16T00:18:41;11.40;91.40
41058;DHT22;66768;48.884;2.258;2023-03-16T00:21:09;11.30;91.40
41058;DHT22;66768;48.884;2.258;2023-03-16T00:23:36;11.30;91.40
41058;DHT22;66768;48.884;2.258;2023-03-16T00:26:04;11.30;91.50
41058;DHT22;66768;48.884;2.258;2023-03-16T00:28:32;11.30;91.40
41058;DHT22;66768;48.884;2.258;2023-03-16T00:31:00;11.30;91.50
41058;DHT22;66768;48.884;2.258;2023-03-16T00:33:29;11.30;91.60
41058;DHT22;66768;48.884;2.258;2023-03-16T00:35:59;11.30;91.60
41058;DHT22;66768;48.884;2.258;2023-03-16T00:38:31;11.20;91.40
41058;DHT22;66768;48.884;2.258;2023-03-16T00:40:59;11.20;91.50
41058;DHT22;66768;48.884;2.258;2023-03-16T00:43:28;11.20;91.50
41058;DHT22;66768;48.884;2.258;2023-03-16T00:45:59;11.10;91.40
41058;DHT22;66768;48.884;2.258;2023-03-16T00:48:32;11.10;91.70
41058;DHT22;66768;48.884;2.258;2023-03-16T00:51:00;11.10;91.60
41058;DHT22;66768;48.884;2.258;2023-03-16T00:53:28;11.10;91.50
41058;DHT22;66768;48.884;2.258;2023-03-16T00:55:56;11.10;91.70
41058;DHT22;66768;48.884;2.258;2023-03-16T00:58:23;11.00;91.80
41058;DHT22;66768;48.884;2.258;2023-03-16T01:00:50;11.00;91.90
41058;DHT22;66768;48.884;2.258;2023-03-16T01:03:18;11.00;92.00
41058;DHT22;66768;48.884;2.258;2023-03-16T01:05:47;11.00;92.00
41058;DHT22;66768;48.884;2.258;2023-03-16T01:08:14;11.00;92.10
41058;DHT22;66768;48.884;2.258;2023-03-16T01:10:41;11.00;92.20
41058;DHT22;66768;48.884;2.258;2023-03-16T01:13:09;10.90;92.30
41058;DHT22;66768;48.884;2.258;2023-03-16T01:15:37;10.90;92.40
41058;DHT22;66768;48.884;2.258;2023-03-16T01:18:04;10.90;92.50
41058;DHT22;66768;48.884;2.258;2023-03-16T01:20:32;10.90;92.50
41058;DHT22;66768;48.884;2.258;2023-03-16T01:23:00;10.90;92.40
41058;DHT22;66768;48.884;2.258;2023-03-16T01:25:27;10.80;92.60
41058;DHT22;66768;48.884;2.258;2023-03-16T01:27:54;10.90;92.70
41058;DHT22;66768;48.884;2.258;2023-03-16T01:30:22;10.80;92.70
41058;DHT22;66768;48.884;2.258;2023-03-16T01:32:49;10.80;92.80
41058;DHT22;66768;48.884;2.258;2023-03-16T01:35:16;10.80;92.90
41058;DHT22;66768;48.884;2.258;2023-03-16T01:37:42;10.80;93.00
41058;DHT22;66768;48.884;2.258;2023-03-16T01:40:12;10.80;93.00
41058;DHT22;66768;48.884;2.258;2023-03-16T01:42:46;10.80;93.00
41058;DHT22;66768;48.884;2.258;2023-03-16T01:48:18;10.70;93.20
41058;DHT22;66768;48.884;2.258;2023-03-16T01:50:46;10.70;93.20
41058;DHT22;66768;48.884;2.258;2023-03-16T01:53:13;10.70;93.20
41058;DHT22;66768;48.884;2.258;2023-03-16T01:55:42;10.70;93.40
41058;DHT22;66768;48.884;2.258;2023-03-16T01:58:09;10.70;93.60
41058;DHT22;66768;48.884;2.258;2023-03-16T02:00:39;10.70;93.30
41058;DHT22;66768;48.884;2.258;2023-03-16T02:03:09;10.70;93.40
41058;DHT22;66768;48.884;2.258;2023-03-16T02:05:40;10.70;93.50
41058;DHT22;66768;48.884;2.258;2023-03-16T02:08:09;10.70;93.50
41058;DHT22;66768;48.884;2.258;2023-03-16T02:10:37;10.70;93.60
41058;DHT22;66768;48.884;2.258;2023-03-16T02:13:07;10.60;93.60
41058;DHT22;66768;48.884;2.258;2023-03-16T02:15:34;10.60;93.50
41058;DHT22;66768;48.884;2.258;2023-03-16T02:18:01;10.60;93.60
41058;DHT22;66768;48.884;2.258;2023-03-16T02:20:35;10.60;93.60
41058;DHT22;66768;48.884;2.258;2023-03-16T02:23:06;10.60;93.90
41058;DHT22;66768;48.884;2.258;2023-03-16T02:25:41;10.50;93.80
41058;DHT22;66768;48.884;2.258;2023-03-16T02:28:16;10.50;94.00
41058;DHT22;66768;48.884;2.258;2023-03-16T02:30:46;10.50;93.90
41058;DHT22;66768;48.884;2.258;2023-03-16T02:33:14;10.50;93.90
41058;DHT22;66768;48.884;2.258;2023-03-16T02:35:41;10.40;93.80
41058;DHT22;66768;48.884;2.258;2023-03-16T02:38:09;10.60;93.90
41058;DHT22;66768;48.884;2.258;2023-03-16T02:40:36;10.50;93.90
41058;DHT22;66768;48.884;2.258;2023-03-16T02:43:06;10.50;93.90
41058;DHT22;66768;48.884;2.258;2023-03-16T02:45:38;10.40;93.90
41058;DHT22;66768;48.884;2.258;2023-03-16T02:48:11;10.40;93.90
41058;DHT22;66768;48.884;2.258;2023-03-16T02:50:44;10.40;94.00
41058;DHT22;66768;48.884;2.258;2023-03-16T02:53:12;10.40;94.10
41058;DHT22;66768;48.884;2.258;2023-03-16T02:55:39;10.40;93.90
41058;DHT22;66768;48.884;2.258;2023-03-16T02:58:06;10.30;93.70
41058;DHT22;66768;48.884;2.258;2023-03-16T03:00:33;10.30;93.70
41058;DHT22;66768;48.884;2.258;2023-03-16T03:03:00;10.40;93.70
41058;DHT22;66768;48.884;2.258;2023-03-16T03:05:28;10.30;93.50
41058;DHT22;66768;48.884;2.258;2023-03-16T03:07:55;10.40;93.60
41058;DHT22;66768;48.884;2.258;2023-03-16T03:10:22;10.30;93.40
41058;DHT22;66768;48.884;2.258;2023-03-16T03:12:49;10.30;93.30
41058;DHT22;66768;48.884;2.258;2023-03-16T03:15:16;10.30;93.30
41058;DHT22;66768;48.884;2.258;2023-03-16T03:17:44;10.30;93.20
41058;DHT22;66768;48.884;2.258;2023-03-16T03:20:12;10.30;93.10
41058;DHT22;66768;48.884;2.258;2023-03-16T03:22:43;10.30;93.20
41058;DHT22;66768;48.884;2.258;2023-03-16T03:25:11;10.30;93.10
41058;DHT22;66768;48.884;2.258;2023-03-16T03:27:39;10.20;93.10
41058;DHT22;66768;48.884;2.258;2023-03-16T03:30:08;10.20;93.10
41058;DHT22;66768;48.884;2.258;2023-03-16T03:32:35;10.20;93.00
41058;DHT22;66768;48.884;2.258;2023-03-16T03:35:02;10.20;93.10
41058;DHT22;66768;48.884;2.258;2023-03-16T03:37:29;10.20;93.10
41058;DHT22;66768;48.884;2.258;2023-03-16T03:39:57;10.20;93.10
41058;DHT22;66768;48.884;2.258;2023-03-16T03:42:24;10.10;93.10
41058;DHT22;66768;48.884;2.258;2023-03-16T03:44:51;10.20;93.30
41058;DHT22;66768;48.884;2.258;2023-03-16T03:47:18;10.20;93.20
41058;DHT22;66768;48.884;2.258;2023-03-16T03:49:45;10.20;93.30
41058;DHT22;66768;48.884;2.258;2023-03-16T03:52:12;10.10;93.10
41058;DHT22;66768;48.884;2.258;2023-03-16T03:54:39;10.10;93.10
41058;DHT22;66768;48.884;2.258;2023-03-16T03:57:07;10.10;93.10
41058;DHT22;66768;48.884;2.258;2023-03-16T03:59:34;10.10;93.10
41058;DHT22;66768;48.884;2.258;2023-03-16T04:02:07;10.10;93.10
41058;DHT22;66768;48.884;2.258;2023-03-16T04:04:34;10.10;93.10
41058;DHT22;66768;48.884;2.258;2023-03-16T04:07:01;10.10;93.10
41058;DHT22;66768;48.884;2.258;2023-03-16T04:09:28;10.10;93.10
41058;DHT22;66768;48.884;2.258;2023-03-16T04:11:58;10.10;93.20
41058;DHT22;66768;48.884;2.258;2023-03-16T04:14:27;10.00;93.10
41058;DHT22;66768;48.884;2.258;2023-03-16T04:16:54;10.00;93.30
41058;DHT22;66768;48.884;2.258;2023-03-16T04:19:21;10.00;93.10
41058;DHT22;66768;48.884;2.258;2023-03-16T04:21:49;10.00;92.90
41058;DHT22;66768;48.884;2.258;2023-03-16T04:24:16;10.00;92.90
41058;DHT22;66768;48.884;2.258;2023-03-16T04:26:44;10.00;92.80
41058;DHT22;66768;48.884;2.258;2023-03-16T04:29:11;9.90;92.80
41058;DHT22;66768;48.884;2.258;2023-03-16T04:31:40;10.00;92.80
41058;DHT22;66768;48.884;2.258;2023-03-16T04:34:07;10.00;92.60
41058;DHT22;66768;48.884;2.258;2023-03-16T04:36:34;10.00;92.60
41058;DHT22;66768;48.884;2.258;2023-03-16T04:39:01;9.90;92.70
41058;DHT22;66768;48.884;2.258;2023-03-16T04:41:29;9.90;92.70
41058;DHT22;66768;48.884;2.258;2023-03-16T04:43:56;9.90;92.70
41058;DHT22;66768;48.884;2.258;2023-03-16T04:46:23;9.90;92.70
41058;DHT22;66768;48.884;2.258;2023-03-16T04:48:52;9.90;92.50
41058;DHT22;66768;48.884;2.258;2023-03-16T04:51:23;9.90;92.50
41058;DHT22;66768;48.884;2.258;2023-03-16T04:53:49;9.90;92.40
41058;DHT22;66768;48.884;2.258;2023-03-16T04:56:17;9.80;92.30
41058;DHT22;66768;48.884;2.258;2023-03-16T04:58:44;9.90;92.20
41058;DHT22;66768;48.884;2.258;2023-03-16T05:01:11;9.90;92.30
41058;DHT22;66768;48.884;2.258;2023-03-16T05:03:37;9.90;92.20
41058;DHT22;66768;48.884;2.258;2023-03-16T05:06:06;9.90;92.20
41058;DHT22;66768;48.884;2.258;2023-03-16T05:08:33;9.80;92.20
41058;DHT22;66768;48.884;2.258;2023-03-16T05:11:00;9.80;92.10
41058;DHT22;66768;48.884;2.258;2023-03-16T05:13:27;9.80;92.10
41058;DHT22;66768;48.884;2.258;2023-03-16T05:15:53;9.80;92.10
41058;DHT22;66768;48.884;2.258;2023-03-16T05:18:21;9.80;92.10
41058;DHT22;66768;48.884;2.258;2023-03-16T05:20:49;9.70;92.10
41058;DHT22;66768;48.884;2.258;2023-03-16T05:23:17;9.80;92.10
41058;DHT22;66768;48.884;2.258;2023-03-16T05:25:45;9.80;92.10
41058;DHT22;66768;48.884;2.258;2023-03-16T05:28:12;9.70;92.00
41058;DHT22;66768;48.884;2.258;2023-03-16T05:30:39;9.80;92.10
41058;DHT22;66768;48.884;2.258;2023-03-16T05:33:07;9.80;92.50
41058;DHT22;66768;48.884;2.258;2023-03-16T05:35:34;9.70;92.20
41058;DHT22;66768;48.884;2.258;2023-03-16T05:38:01;9.70;92.20
41058;DHT22;66768;48.884;2.258;2023-03-16T05:40:29;9.70;92.20
41058;DHT22;66768;48.884;2.258;2023-03-16T05:42:57;9.70;92.50
41058;DHT22;66768;48.884;2.258;2023-03-16T05:45:25;9.80;92.10
41058;DHT22;66768;48.884;2.258;2023-03-16T05:47:52;9.70;92.10
41058;DHT22;66768;48.884;2.258;2023-03-16T05:50:19;9.70;92.00
41058;DHT22;66768;48.884;2.258;2023-03-16T05:52:46;9.60;92.00
41058;DHT22;66768;48.884;2.258;2023-03-16T05:55:14;9.70;92.00
41058;DHT22;66768;48.884;2.258;2023-03-16T05:57:43;9.70;92.10
41058;DHT22;66768;48.884;2.258;2023-03-16T06:00:12;9.60;92.10
41058;DHT22;66768;48.884;2.258;2023-03-16T06:02:40;9.60;92.20
41058;DHT22;66768;48.884;2.258;2023-03-16T06:05:07;9.60;92.10
41058;DHT22;66768;48.884;2.258;2023-03-16T06:07:34;9.60;92.00
41058;DHT22;66768;48.884;2.258;2023-03-16T06:10:01;9.60;92.00
41058;DHT22;66768;48.884;2.258;2023-03-16T06:12:29;9.60;91.90
41058;DHT22;66768;48.884;2.258;2023-03-16T06:14:58;9.60;91.90
41058;DHT22;66768;48.884;2.258;2023-03-16T06:17:25;9.60;91.90
41058;DHT22;66768;48.884;2.258;2023-03-16T06:19:52;9.60;91.90
41058;DHT22;66768;48.884;2.258;2023-03-16T06:22:19;9.60;91.90
41058;DHT22;66768;48.884;2.258;2023-03-16T06:24:45;9.60;91.80
41058;DHT22;66768;48.884;2.258;2023-03-16T06:27:12;9.60;91.90
41058;DHT22;66768;48.884;2.258;2023-03-16T06:29:39;9.60;92.10
41058;DHT22;66768;48.884;2.258;2023-03-16T06:32:09;9.70;91.90
41058;DHT22;66768;48.884;2.258;2023-03-16T06:34:36;9.60;92.00
41058;DHT22;66768;48.884;2.258;2023-03-16T06:37:03;9.70;92.10
41058;DHT22;66768;48.884;2.258;2023-03-16T06:39:30;9.70;92.00
41058;DHT22;66768;48.884;2.258;2023-03-16T06:41:57;9.70;91.90
41058;DHT22;66768;48.884;2.258;2023-03-16T06:44:24;9.70;91.90
41058;DHT22;66768;48.884;2.258;2023-03-16T06:46:51;9.70;91.80
41058;DHT22;66768;48.884;2.258;2023-03-16T06:49:19;9.70;91.80
41058;DHT22;66768;48.884;2.258;2023-03-16T06:51:46;9.80;91.90
41058;DHT22;66768;48.884;2.258;2023-03-16T06:54:14;9.80;91.80
41058;DHT22;66768;48.884;2.258;2023-03-16T06:56:40;9.80;91.70
41058;DHT22;66768;48.884;2.258;2023-03-16T06:59:07;9.80;91.70
41058;DHT22;66768;48.884;2.258;2023-03-16T07:01:34;9.80;91.80
41058;DHT22;66768;48.884;2.258;2023-03-16T07:04:01;9.90;91.60
41058;DHT22;66768;48.884;2.258;2023-03-16T07:06:29;9.90;91.50
41058;DHT22;66768;48.884;2.258;2023-03-16T07:08:56;9.60;91.30
41058;DHT22;66768;48.884;2.258;2023-03-16T07:11:23;9.90;91.50
41058;DHT22;66768;48.884;2.258;2023-03-16T07:13:50;9.90;91.30
41058;DHT22;66768;48.884;2.258;2023-03-16T07:16:17;9.90;91.40
41058;DHT22;66768;48.884;2.258;2023-03-16T07:18:44;10.00;91.40
41058;DHT22;66768;48.884;2.258;2023-03-16T07:21:11;10.00;92.20
41058;DHT22;66768;48.884;2.258;2023-03-16T07:23:40;10.00;91.70
41058;DHT22;66768;48.884;2.258;2023-03-16T07:26:07;10.00;91.60
41058;DHT22;66768;48.884;2.258;2023-03-16T07:28:34;10.10;92.00
41058;DHT22;66768;48.884;2.258;2023-03-16T07:31:01;10.10;91.10
41058;DHT22;66768;48.884;2.258;2023-03-16T07:33:27;10.00;91.20
41058;DHT22;66768;48.884;2.258;2023-03-16T07:35:54;10.20;91.00
41058;DHT22;66768;48.884;2.258;2023-03-16T07:38:21;10.20;90.90
41058;DHT22;66768;48.884;2.258;2023-03-16T07:40:50;10.20;90.70
41058;DHT22;66768;48.884;2.258;2023-03-16T07:43:17;10.20;90.70
41058;DHT22;66768;48.884;2.258;2023-03-16T07:45:47;10.30;90.80
41058;DHT22;66768;48.884;2.258;2023-03-16T07:48:15;10.40;90.90
41058;DHT22;66768;48.884;2.258;2023-03-16T07:50:43;10.40;90.80
41058;DHT22;66768;48.884;2.258;2023-03-16T07:53:09;10.50;90.90
41058;DHT22;66768;48.884;2.258;2023-03-16T07:55:36;10.50;90.70
41058;DHT22;66768;48.884;2.258;2023-03-16T07:58:05;10.50;90.80
41058;DHT22;66768;48.884;2.258;2023-03-16T08:00:32;10.60;90.60
41058;DHT22;66768;48.884;2.258;2023-03-16T08:02:58;10.60;90.40
41058;DHT22;66768;48.884;2.258;2023-03-16T08:05:26;10.60;90.50
41058;DHT22;66768;48.884;2.258;2023-03-16T08:07:54;10.60;90.20
41058;DHT22;66768;48.884;2.258;2023-03-16T08:10:22;10.60;90.30
41058;DHT22;66768;48.884;2.258;2023-03-16T08:12:49;10.70;90.40
41058;DHT22;66768;48.884;2.258;2023-03-16T08:15:17;10.60;90.40
41058;DHT22;66768;48.884;2.258;2023-03-16T08:17:46;10.70;90.50
41058;DHT22;66768;48.884;2.258;2023-03-16T08:20:13;10.70;90.30
41058;DHT22;66768;48.884;2.258;2023-03-16T08:22:40;10.70;90.50
41058;DHT22;66768;48.884;2.258;2023-03-16T08:25:11;10.80;90.50
41058;DHT22;66768;48.884;2.258;2023-03-16T08:27:38;10.80;90.50
41058;DHT22;66768;48.884;2.258;2023-03-16T08:30:09;10.90;90.60
41058;DHT22;66768;48.884;2.258;2023-03-16T08:32:38;10.90;90.60
41058;DHT22;66768;48.884;2.258;2023-03-16T08:35:06;10.90;90.70
41058;DHT22;66768;48.884;2.258;2023-03-16T08:37:34;10.90;90.50
41058;DHT22;66768;48.884;2.258;2023-03-16T08:40:01;11.00;90.40
41058;DHT22;66768;48.884;2.258;2023-03-16T08:42:28;10.90;90.40
41058;DHT22;66768;48.884;2.258;2023-03-16T08:44:55;11.10;90.30
41058;DHT22;66768;48.884;2.258;2023-03-16T08:47:24;11.10;90.70
41058;DHT22;66768;48.884;2.258;2023-03-16T08:49:52;11.20;90.40
41058;DHT22;66768;48.884;2.258;2023-03-16T08:52:19;11.20;90.20
41058;DHT22;66768;48.884;2.258;2023-03-16T08:54:47;11.20;90.00
41058;DHT22;66768;48.884;2.258;2023-03-16T08:57:14;11.20;90.20
41058;DHT22;66768;48.884;2.258;2023-03-16T08:59:41;11.10;90.30
41058;DHT22;66768;48.884;2.258;2023-03-16T09:02:11;11.20;90.20
41058;DHT22;66768;48.884;2.258;2023-03-16T09:04:38;11.20;90.50
41058;DHT22;66768;48.884;2.258;2023-03-16T09:07:06;11.30;90.40
41058;DHT22;66768;48.884;2.258;2023-03-16T09:09:34;11.40;90.50
41058;DHT22;66768;48.884;2.258;2023-03-16T09:12:01;11.50;90.60
41058;DHT22;66768;48.884;2.258;2023-03-16T09:14:28;11.50;90.70
41058;DHT22;66768;48.884;2.258;2023-03-16T09:16:55;11.60;90.50
41058;DHT22;66768;48.884;2.258;2023-03-16T09:19:22;11.70;90.20
41058;DHT22;66768;48.884;2.258;2023-03-16T09:21:49;11.70;90.20
41058;DHT22;66768;48.884;2.258;2023-03-16T09:24:19;11.80;90.00
41058;DHT22;66768;48.884;2.258;2023-03-16T09:26:46;11.80;90.20
41058;DHT22;66768;48.884;2.258;2023-03-16T09:29:13;11.90;90.20
41058;DHT22;66768;48.884;2.258;2023-03-16T09:31:40;11.90;90.00
41058;DHT22;66768;48.884;2.258;2023-03-16T09:34:07;12.10;90.20
41058;DHT22;66768;48.884;2.258;2023-03-16T09:36:35;12.10;89.80
41058;DHT22;66768;48.884;2.258;2023-03-16T09:39:02;12.20;89.70
41058;DHT22;66768;48.884;2.258;2023-03-16T09:41:38;12.30;89.70
41058;DHT22;66768;48.884;2.258;2023-03-16T09:44:22;12.30;89.30
41058;DHT22;66768;48.884;2.258;2023-03-16T09:46:52;12.40;89.60
41058;DHT22;66768;48.884;2.258;2023-03-16T09:49:20;12.50;89.70
41058;DHT22;66768;48.884;2.258;2023-03-16T09:51:53;12.50;89.60
41058;DHT22;66768;48.884;2.258;2023-03-16T09:54:28;12.50;89.90
41058;DHT22;66768;48.884;2.258;2023-03-16T09:56:59;12.60;90.00
41058;DHT22;66768;48.884;2.258;2023-03-16T09:59:26;12.60;89.60
41058;DHT22;66768;48.884;2.258;2023-03-16T10:02:04;12.60;89.00
41058;DHT22;66768;48.884;2.258;2023-03-16T10:04:40;12.70;89.50
41058;DHT22;66768;48.884;2.258;2023-03-16T10:07:18;12.70;89.60
41058;DHT22;66768;48.884;2.258;2023-03-16T10:09:53;12.70;89.80
41058;DHT22;66768;48.884;2.258;2023-03-16T10:12:27;12.70;90.10
41058;DHT22;66768;48.884;2.258;2023-03-16T10:15:01;12.80;90.00
41058;DHT22;66768;48.884;2.258;2023-03-16T10:17:33;12.90;90.10
41058;DHT22;66768;48.884;2.258;2023-03-16T10:20:04;13.00;89.20
41058;DHT22;66768;48.884;2.258;2023-03-16T10:22:34;12.90;89.60
41058;DHT22;66768;48.884;2.258;2023-03-16T10:25:07;13.00;89.50
41058;DHT22;66768;48.884;2.258;2023-03-16T10:27:41;13.00;89.40
41058;DHT22;66768;48.884;2.258;2023-03-16T10:30:18;13.00;89.30
41058;DHT22;66768;48.884;2.258;2023-03-16T10:32:46;13.00;89.70
41058;DHT22;66768;48.884;2.258;2023-03-16T10:35:21;13.10;89.40
41058;DHT22;66768;48.884;2.258;2023-03-16T10:37:52;13.10;89.60
41058;DHT22;66768;48.884;2.258;2023-03-16T10:40:19;13.20;89.20
41058;DHT22;66768;48.884;2.258;2023-03-16T10:42:48;13.20;89.30
41058;DHT22;66768;48.884;2.258;2023-03-16T10:45:28;13.30;89.50
41058;DHT22;66768;48.884;2.258;2023-03-16T10:48:05;13.40;89.60
41058;DHT22;66768;48.884;2.258;2023-03-16T10:50:32;13.40;89.90
41058;DHT22;66768;48.884;2.258;2023-03-16T10:53:00;13.40;89.20
41058;DHT22;66768;48.884;2.258;2023-03-16T10:55:29;13.40;89.50
41058;DHT22;66768;48.884;2.258;2023-03-16T10:58:00;13.40;89.50
41058;DHT22;66768;48.884;2.258;2023-03-16T11:00:33;13.50;88.30
41058;DHT22;66768;48.884;2.258;2023-03-16T11:03:11;13.50;87.80
41058;DHT22;66768;48.884;2.258;2023-03-16T11:05:39;13.50;88.30
41058;DHT22;66768;48.884;2.258;2023-03-16T11:08:08;13.50;87.80
41058;DHT22;66768;48.884;2.258;2023-03-16T11:10:39;13.50;88.20
41058;DHT22;66768;48.884;2.258;2023-03-16T11:13:12;13.50;88.40
41058;DHT22;66768;48.884;2.258;2023-03-16T11:15:44;13.50;88.70
41058;DHT22;66768;48.884;2.258;2023-03-16T11:18:21;13.60;89.00
41058;DHT22;66768;48.884;2.258;2023-03-16T11:20:52;13.60;88.90
41058;DHT22;66768;48.884;2.258;2023-03-16T11:23:25;13.60;89.10
41058;DHT22;66768;48.884;2.258;2023-03-16T11:25:55;13.60;88.90
41058;DHT22;66768;48.884;2.258;2023-03-16T11:28:33;13.60;88.80
41058;DHT22;66768;48.884;2.258;2023-03-16T11:31:10;13.70;89.80
41058;DHT22;66768;48.884;2.258;2023-03-16T11:33:39;13.70;89.60
41058;DHT22;66768;48.884;2.258;2023-03-16T11:36:16;13.70;88.90
41058;DHT22;66768;48.884;2.258;2023-03-16T11:38:54;13.80;89.00
41058;DHT22;66768;48.884;2.258;2023-03-16T11:41:30;13.80;89.00
41058;DHT22;66768;48.884;2.258;2023-03-16T11:44:06;13.80;89.00
41058;DHT22;66768;48.884;2.258;2023-03-16T11:46:40;13.80;89.00
41058;DHT22;66768;48.884;2.258;2023-03-16T11:49:21;13.80;88.80
41058;DHT22;66768;48.884;2.258;2023-03-16T11:51:58;13.80;89.60
41058;DHT22;66768;48.884;2.258;2023-03-16T11:54:42;13.80;89.50
41058;DHT22;66768;48.884;2.258;2023-03-16T11:57:26;13.90;89.00
41058;DHT22;66768;48.884;2.258;2023-03-16T12:00:05;13.90;89.20
41058;DHT22;66768;48.884;2.258;2023-03-16T12:02:44;13.90;89.50
41058;DHT22;66768;48.884;2.258;2023-03-16T12:05:27;14.00;88.70
41058;DHT22;66768;48.884;2.258;2023-03-16T12:08:10;14.00;88.40
41058;DHT22;66768;48.884;2.258;2023-03-16T12:10:45;14.00;88.10
41058;DHT22;66768;48.884;2.258;2023-03-16T12:13:25;14.10;88.50
41058;DHT22;66768;48.884;2.258;2023-03-16T12:16:01;14.10;87.50
41058;DHT22;66768;48.884;2.258;2023-03-16T12:18:37;14.20;87.40
41058;DHT22;66768;48.884;2.258;2023-03-16T12:21:10;14.20;87.10
41058;DHT22;66768;48.884;2.258;2023-03-16T12:23:41;14.30;87.10
41058;DHT22;66768;48.884;2.258;2023-03-16T12:26:10;14.30;86.70
41058;DHT22;66768;48.884;2.258;2023-03-16T12:28:41;14.40;86.80
41058;DHT22;66768;48.884;2.258;2023-03-16T12:31:12;14.40;87.90
41058;DHT22;66768;48.884;2.258;2023-03-16T12:33:53;14.40;87.20
41058;DHT22;66768;48.884;2.258;2023-03-16T12:36:43;14.50;86.40
41058;DHT22;66768;48.884;2.258;2023-03-16T12:39:18;14.60;86.40
41058;DHT22;66768;48.884;2.258;2023-03-16T12:41:51;14.60;86.70
41058;DHT22;66768;48.884;2.258;2023-03-16T12:44:28;14.60;86.60
41058;DHT22;66768;48.884;2.258;2023-03-16T12:47:01;14.60;86.00
41058;DHT22;66768;48.884;2.258;2023-03-16T12:49:31;14.70;86.00
41058;DHT22;66768;48.884;2.258;2023-03-16T12:52:00;14.70;85.70
41058;DHT22;66768;48.884;2.258;2023-03-16T12:54:27;14.80;85.80
41058;DHT22;66768;48.884;2.258;2023-03-16T12:57:00;14.80;85.60
41058;DHT22;66768;48.884;2.258;2023-03-16T12:59:35;14.80;84.60
41058;DHT22;66768;48.884;2.258;2023-03-16T13:02:11;14.80;85.10
41058;DHT22;66768;48.884;2.258;2023-03-16T13:04:41;14.90;85.10
41058;DHT22;66768;48.884;2.258;2023-03-16T13:07:17;14.90;84.40
41058;DHT22;66768;48.884;2.258;2023-03-16T13:09:46;15.00;84.10
41058;DHT22;66768;48.884;2.258;2023-03-16T13:12:23;15.00;84.40
41058;DHT22;66768;48.884;2.258;2023-03-16T13:14:50;15.00;84.30
41058;DHT22;66768;48.884;2.258;2023-03-16T13:17:29;15.00;83.80
41058;DHT22;66768;48.884;2.258;2023-03-16T13:20:03;15.10;83.30
41058;DHT22;66768;48.884;2.258;2023-03-16T13:22:41;15.10;83.30
41058;DHT22;66768;48.884;2.258;2023-03-16T13:25:15;15.10;83.10
41058;DHT22;66768;48.884;2.258;2023-03-16T13:27:43;15.20;83.30
41058;DHT22;66768;48.884;2.258;2023-03-16T13:30:20;15.20;83.30
41058;DHT22;66768;48.884;2.258;2023-03-16T13:32:52;15.20;83.60
41058;DHT22;66768;48.884;2.258;2023-03-16T13:35:24;15.20;84.50
41058;DHT22;66768;48.884;2.258;2023-03-16T13:37:52;15.30;83.50
41058;DHT22;66768;48.884;2.258;2023-03-16T13:40:21;15.30;83.70
41058;DHT22;66768;48.884;2.258;2023-03-16T13:42:49;15.30;82.70
41058;DHT22;66768;48.884;2.258;2023-03-16T13:45:20;15.40;82.00
41058;DHT22;66768;48.884;2.258;2023-03-16T13:47:50;15.40;81.90
41058;DHT22;66768;48.884;2.258;2023-03-16T13:50:18;15.40;82.00
41058;DHT22;66768;48.884;2.258;2023-03-16T13:52:55;15.40;81.80
41058;DHT22;66768;48.884;2.258;2023-03-16T13:55:28;15.40;81.30
41058;DHT22;66768;48.884;2.258;2023-03-16T13:57:56;15.40;81.70
41058;DHT22;66768;48.884;2.258;2023-03-16T14:00:24;15.40;81.80
41058;DHT22;66768;48.884;2.258;2023-03-16T14:02:55;15.40;82.00
41058;DHT22;66768;48.884;2.258;2023-03-16T14:05:25;15.40;81.40
41058;DHT22;66768;48.884;2.258;2023-03-16T14:07:54;15.40;80.70
41058;DHT22;66768;48.884;2.258;2023-03-16T14:10:22;15.50;80.50
41058;DHT22;66768;48.884;2.258;2023-03-16T14:12:50;15.50;80.30
41058;DHT22;66768;48.884;2.258;2023-03-16T14:15:18;15.50;80.60
41058;DHT22;66768;48.884;2.258;2023-03-16T14:17:45;15.50;80.30
41058;DHT22;66768;48.884;2.258;2023-03-16T14:20:18;15.50;80.40
41058;DHT22;66768;48.884;2.258;2023-03-16T14:22:45;15.60;80.90
41058;DHT22;66768;48.884;2.258;2023-03-16T14:25:18;15.60;81.00
41058;DHT22;66768;48.884;2.258;2023-03-16T14:27:46;15.70;81.00
41058;DHT22;66768;48.884;2.258;2023-03-16T14:30:16;15.70;81.30
41058;DHT22;66768;48.884;2.258;2023-03-16T14:32:53;15.70;81.10
41058;DHT22;66768;48.884;2.258;2023-03-16T14:35:25;15.70;81.20
41058;DHT22;66768;48.884;2.258;2023-03-16T14:37:52;15.80;81.30
41058;DHT22;66768;48.884;2.258;2023-03-16T14:40:23;15.80;81.30
41058;DHT22;66768;48.884;2.258;2023-03-16T14:42:51;15.70;81.30
41058;DHT22;66768;48.884;2.258;2023-03-16T14:45:20;15.70;81.00
41058;DHT22;66768;48.884;2.258;2023-03-16T14:47:48;15.80;82.10
41058;DHT22;66768;48.884;2.258;2023-03-16T14:50:23;15.70;81.30
41058;DHT22;66768;48.884;2.258;2023-03-16T14:52:52;15.70;81.10
41058;DHT22;66768;48.884;2.258;2023-03-16T14:55:20;15.70;80.40
41058;DHT22;66768;48.884;2.258;2023-03-16T14:57:49;15.70;80.50
41058;DHT22;66768;48.884;2.258;2023-03-16T15:00:19;15.70;80.80
41058;DHT22;66768;48.884;2.258;2023-03-16T15:02:57;15.70;80.30
41058;DHT22;66768;48.884;2.258;2023-03-16T15:05:31;15.60;80.30
41058;DHT22;66768;48.884;2.258;2023-03-16T15:07:59;15.60;81.00
41058;DHT22;66768;48.884;2.258;2023-03-16T15:10:27;15.60;81.10
41058;DHT22;66768;48.884;2.258;2023-03-16T15:12:55;15.60;81.50
41058;DHT22;66768;48.884;2.258;2023-03-16T15:15:29;15.70;81.50
41058;DHT22;66768;48.884;2.258;2023-03-16T15:17:57;15.60;81.60
41058;DHT22;66768;48.884;2.258;2023-03-16T15:20:29;15.60;81.80
41058;DHT22;66768;48.884;2.258;2023-03-16T15:22:57;15.60;81.80
41058;DHT22;66768;48.884;2.258;2023-03-16T15:25:31;15.60;81.60
41058;DHT22;66768;48.884;2.258;2023-03-16T15:28:02;15.60;82.10
41058;DHT22;66768;48.884;2.258;2023-03-16T15:30:30;15.60;81.90
41058;DHT22;66768;48.884;2.258;2023-03-16T15:32:58;15.60;82.10
41058;DHT22;66768;48.884;2.258;2023-03-16T15:35:26;15.60;82.00
41058;DHT22;66768;48.884;2.258;2023-03-16T15:37:54;15.60;82.30
41058;DHT22;66768;48.884;2.258;2023-03-16T15:40:22;15.70;82.90
41058;DHT22;66768;48.884;2.258;2023-03-16T15:42:50;15.70;83.10
41058;DHT22;66768;48.884;2.258;2023-03-16T15:45:20;15.70;83.40
41058;DHT22;66768;48.884;2.258;2023-03-16T15:47:47;15.70;84.40
41058;DHT22;66768;48.884;2.258;2023-03-16T15:50:16;15.70;84.40